sensor_id;sensor_type;location;lat;lon;timestamp;temperature;humidity
9410;DHT22;4744;52.576;13.568;2022-09-16T00:00:16;12.60;1.00
9410;DHT22;4744;52.576;13.568;2022-09-16T00:02:43;12.50;1.00
9410;DHT22;4744;52.576;13.568;2022-09-16T00:05:11;12.50;1.00
9410;DHT22;4744;52.576;13.568;2022-09-16T00:07:38;12.50;1.00
9410;DHT22;4744;52.576;13.568;2022-09-16T00:10:06;12.50;1.00
9410;DHT22;4744;52.576;13.568;2022-09-16T00:12:33;12.50;1.00
9410;DHT22;4744;52.576;13.568;2022-09-16T00:15:00;12.50;1.00
9410;DHT22;4744;52.576;13.568;2022-09-16T00:17:26;12.50;1.00
9410;DHT22;4744;52.576;13.568;2022-09-16T00:19:54;12.40;1.00
9410;DHT22;4744;52.576;13.568;2022-09-16T00:22:23;12.40;1.00
9410;DHT22;4744;52.576;13.568;2022-09-16T00:24:50;12.30;1.00
9410;DHT22;4744;52.576;13.568;2022-09-16T00:27:17;12.30;1.00
9410;DHT22;4744;52.576;13.568;2022-09-16T00:29:43;12.30;1.00
9410;DHT22;4744;52.576;13.568;2022-09-16T00:32:10;12.30;1.00
9410;DHT22;4744;52.576;13.568;2022-09-16T00:34:38;12.20;1.00
9410;DHT22;4744;52.576;13.568;2022-09-16T00:37:05;12.20;1.00
9410;DHT22;4744;52.576;13.568;2022-09-16T00:39:34;12.20;1.00
9410;DHT22;4744;52.576;13.568;2022-09-16T00:42:01;12.10;1.00
9410;DHT22;4744;52.576;13.568;2022-09-16T00:44:51;12.10;1.00
9410;DHT22;4744;52.576;13.568;2022-09-16T00:47:20;12.10;1.00
9410;DHT22;4744;52.576;13.568;2022-09-16T00:49:49;12.10;1.00
9410;DHT22;4744;52.576;13.568;2022-09-16T00:52:16;12.10;1.00
9410;DHT22;4744;52.576;13.568;2022-09-16T00:54:45;12.00;1.00
9410;DHT22;4744;52.576;13.568;2022-09-16T00:57:14;12.00;1.00
9410;DHT22;4744;52.576;13.568;2022-09-16T00:59:45;12.00;1.00
9410;DHT22;4744;52.576;13.568;2022-09-16T01:02:15;12.00;1.00
9410;DHT22;4744;52.576;13.568;2022-09-16T01:04:46;12.00;1.00
9410;DHT22;4744;52.576;13.568;2022-09-16T01:07:17;11.90;1.00
9410;DHT22;4744;52.576;13.568;2022-09-16T01:09:47;11.90;1.00
9410;DHT22;4744;52.576;13.568;2022-09-16T01:12:13;11.90;1.00
9410;DHT22;4744;52.576;13.568;2022-09-16T01:14:40;11.90;1.00
9410;DHT22;4744;52.576;13.568;2022-09-16T01:17:26;11.80;1.00
9410;DHT22;4744;52.576;13.568;2022-09-16T01:20:14;11.80;1.00
9410;DHT22;4744;52.576;13.568;2022-09-16T01:23:01;11.80;1.00
9410;DHT22;4744;52.576;13.568;2022-09-16T01:25:45;11.80;1.00
9410;DHT22;4744;52.576;13.568;2022-09-16T01:28:39;11.70;1.00
9410;DHT22;4744;52.576;13.568;2022-09-16T01:31:14;11.70;1.00
9410;DHT22;4744;52.576;13.568;2022-09-16T01:33:46;11.70;1.00
9410;DHT22;4744;52.576;13.568;2022-09-16T01:36:30;11.70;1.00
9410;DHT22;4744;52.576;13.568;2022-09-16T01:39:19;11.70;1.00
9410;DHT22;4744;52.576;13.568;2022-09-16T01:41:59;11.60;1.00
9410;DHT22;4744;52.576;13.568;2022-09-16T01:44:31;11.60;1.00
9410;DHT22;4744;52.576;13.568;2022-09-16T01:47:11;11.60;1.00
9410;DHT22;4744;52.576;13.568;2022-09-16T01:49:49;11.60;1.00
9410;DHT22;4744;52.576;13.568;2022-09-16T01:52:26;11.60;1.00
9410;DHT22;4744;52.576;13.568;2022-09-16T01:54:58;11.60;1.00
9410;DHT22;4744;52.576;13.568;2022-09-16T01:57:30;11.60;1.00
9410;DHT22;4744;52.576;13.568;2022-09-16T02:00:02;11.50;1.00
9410;DHT22;4744;52.576;13.568;2022-09-16T02:02:35;11.50;1.00
9410;DHT22;4744;52.576;13.568;2022-09-16T02:05:08;11.50;1.00
9410;DHT22;4744;52.576;13.568;2022-09-16T02:07:40;11.50;1.00
9410;DHT22;4744;52.576;13.568;2022-09-16T02:10:13;11.50;1.00
9410;DHT22;4744;52.576;13.568;2022-09-16T02:12:43;11.50;1.00
9410;DHT22;4744;52.576;13.568;2022-09-16T02:15:14;11.40;1.00
9410;DHT22;4744;52.576;13.568;2022-09-16T02:17:48;11.40;1.00
9410;DHT22;4744;52.576;13.568;2022-09-16T02:20:22;11.40;1.00
9410;DHT22;4744;52.576;13.568;2022-09-16T02:22:53;11.40;1.00
9410;DHT22;4744;52.576;13.568;2022-09-16T02:25:23;11.40;1.00
9410;DHT22;4744;52.576;13.568;2022-09-16T02:27:50;11.40;1.00
9410;DHT22;4744;52.576;13.568;2022-09-16T02:30:20;11.40;1.00
9410;DHT22;4744;52.576;13.568;2022-09-16T02:32:53;11.30;1.00
9410;DHT22;4744;52.576;13.568;2022-09-16T02:35:21;11.40;1.00
9410;DHT22;4744;52.576;13.568;2022-09-16T02:37:52;11.30;1.00
9410;DHT22;4744;52.576;13.568;2022-09-16T02:40:24;11.40;1.00
9410;DHT22;4744;52.576;13.568;2022-09-16T02:42:52;11.30;1.00
9410;DHT22;4744;52.576;13.568;2022-09-16T02:45:22;11.30;1.00
9410;DHT22;4744;52.576;13.568;2022-09-16T02:47:58;11.30;1.00
9410;DHT22;4744;52.576;13.568;2022-09-16T02:50:32;11.30;1.00
9410;DHT22;4744;52.576;13.568;2022-09-16T02:53:04;11.30;1.00
9410;DHT22;4744;52.576;13.568;2022-09-16T02:55:36;11.20;1.00
9410;DHT22;4744;52.576;13.568;2022-09-16T02:58:04;11.20;1.00
9410;DHT22;4744;52.576;13.568;2022-09-16T03:00:34;11.20;1.00
9410;DHT22;4744;52.576;13.568;2022-09-16T03:03:03;11.20;1.00
9410;DHT22;4744;52.576;13.568;2022-09-16T03:05:30;11.20;1.00
9410;DHT22;4744;52.576;13.568;2022-09-16T03:07:57;11.20;1.00
9410;DHT22;4744;52.576;13.568;2022-09-16T03:10:32;11.20;1.00
9410;DHT22;4744;52.576;13.568;2022-09-16T03:13:07;11.20;1.00
9410;DHT22;4744;52.576;13.568;2022-09-16T03:15:47;11.20;1.00
9410;DHT22;4744;52.576;13.568;2022-09-16T03:18:39;11.20;1.00
9410;DHT22;4744;52.576;13.568;2022-09-16T03:21:13;11.20;1.00
9410;DHT22;4744;52.576;13.568;2022-09-16T03:23:48;11.10;1.00
9410;DHT22;4744;52.576;13.568;2022-09-16T03:26:28;11.10;1.00
9410;DHT22;4744;52.576;13.568;2022-09-16T03:29:05;11.10;1.00
9410;DHT22;4744;52.576;13.568;2022-09-16T03:31:41;11.10;1.00
9410;DHT22;4744;52.576;13.568;2022-09-16T03:34:16;11.10;1.00
9410;DHT22;4744;52.576;13.568;2022-09-16T03:36:46;11.10;1.00
9410;DHT22;4744;52.576;13.568;2022-09-16T03:39:15;11.10;1.00
9410;DHT22;4744;52.576;13.568;2022-09-16T03:41:42;11.10;1.00
9410;DHT22;4744;52.576;13.568;2022-09-16T03:44:09;11.10;1.00
9410;DHT22;4744;52.576;13.568;2022-09-16T03:46:36;11.10;1.00
9410;DHT22;4744;52.576;13.568;2022-09-16T03:49:03;11.10;1.00
9410;DHT22;4744;52.576;13.568;2022-09-16T03:51:31;11.10;1.00
9410;DHT22;4744;52.576;13.568;2022-09-16T03:53:59;11.20;1.00
9410;DHT22;4744;52.576;13.568;2022-09-16T03:56:25;11.10;1.00
9410;DHT22;4744;52.576;13.568;2022-09-16T03:58:52;11.20;1.00
9410;DHT22;4744;52.576;13.568;2022-09-16T04:01:19;11.10;1.00
9410;DHT22;4744;52.576;13.568;2022-09-16T04:03:46;11.10;1.00
9410;DHT22;4744;52.576;13.568;2022-09-16T04:06:13;11.10;1.00
9410;DHT22;4744;52.576;13.568;2022-09-16T04:08:41;11.10;1.00
9410;DHT22;4744;52.576;13.568;2022-09-16T04:11:08;11.10;1.00
9410;DHT22;4744;52.576;13.568;2022-09-16T04:13:35;11.10;1.00
9410;DHT22;4744;52.576;13.568;2022-09-16T04:16:03;11.10;1.00
9410;DHT22;4744;52.576;13.568;2022-09-16T04:18:30;11.10;1.00
9410;DHT22;4744;52.576;13.568;2022-09-16T04:21:02;11.10;1.00
9410;DHT22;4744;52.576;13.568;2022-09-16T04:23:29;11.10;1.00
9410;DHT22;4744;52.576;13.568;2022-09-16T04:25:59;11.10;1.00
9410;DHT22;4744;52.576;13.568;2022-09-16T04:28:27;11.10;1.00
9410;DHT22;4744;52.576;13.568;2022-09-16T04:30:58;11.10;1.00
9410;DHT22;4744;52.576;13.568;2022-09-16T04:33:27;11.10;1.00
9410;DHT22;4744;52.576;13.568;2022-09-16T04:36:01;11.10;1.00
9410;DHT22;4744;52.576;13.568;2022-09-16T04:38:28;11.10;1.00
9410;DHT22;4744;52.576;13.568;2022-09-16T04:41:00;11.10;1.00
9410;DHT22;4744;52.576;13.568;2022-09-16T04:43:27;11.00;1.00
9410;DHT22;4744;52.576;13.568;2022-09-16T04:45:54;11.00;1.00
9410;DHT22;4744;52.576;13.568;2022-09-16T04:48:21;11.00;1.00
9410;DHT22;4744;52.576;13.568;2022-09-16T04:50:49;11.10;1.00
9410;DHT22;4744;52.576;13.568;2022-09-16T04:53:16;11.00;1.00
9410;DHT22;4744;52.576;13.568;2022-09-16T04:55:43;11.00;1.00
9410;DHT22;4744;52.576;13.568;2022-09-16T04:58:11;11.00;1.00
9410;DHT22;4744;52.576;13.568;2022-09-16T05:00:39;11.00;1.00
9410;DHT22;4744;52.576;13.568;2022-09-16T05:03:06;11.00;1.00
9410;DHT22;4744;52.576;13.568;2022-09-16T05:05:33;11.00;1.00
9410;DHT22;4744;52.576;13.568;2022-09-16T05:08:00;11.00;1.00
9410;DHT22;4744;52.576;13.568;2022-09-16T05:10:27;11.00;1.00
9410;DHT22;4744;52.576;13.568;2022-09-16T05:12:54;11.00;1.00
9410;DHT22;4744;52.576;13.568;2022-09-16T05:15:22;11.00;1.00
9410;DHT22;4744;52.576;13.568;2022-09-16T05:17:49;11.00;1.00
9410;DHT22;4744;52.576;13.568;2022-09-16T05:20:16;11.00;1.00
9410;DHT22;4744;52.576;13.568;2022-09-16T05:22:43;11.10;1.00
9410;DHT22;4744;52.576;13.568;2022-09-16T05:25:09;11.10;1.00
9410;DHT22;4744;52.576;13.568;2022-09-16T05:27:36;11.10;1.00
9410;DHT22;4744;52.576;13.568;2022-09-16T05:30:04;11.10;1.00
9410;DHT22;4744;52.576;13.568;2022-09-16T05:32:32;11.10;1.00
9410;DHT22;4744;52.576;13.568;2022-09-16T05:34:59;11.10;1.00
9410;DHT22;4744;52.576;13.568;2022-09-16T05:37:26;11.10;1.00
9410;DHT22;4744;52.576;13.568;2022-09-16T05:39:52;11.10;1.00
9410;DHT22;4744;52.576;13.568;2022-09-16T05:42:22;11.10;1.00
9410;DHT22;4744;52.576;13.568;2022-09-16T05:44:49;11.20;1.00
9410;DHT22;4744;52.576;13.568;2022-09-16T05:47:16;11.20;1.00
9410;DHT22;4744;52.576;13.568;2022-09-16T05:49:44;11.30;1.00
9410;DHT22;4744;52.576;13.568;2022-09-16T05:52:11;11.30;1.00
9410;DHT22;4744;52.576;13.568;2022-09-16T05:54:37;11.30;1.00
9410;DHT22;4744;52.576;13.568;2022-09-16T05:57:04;11.40;1.00
9410;DHT22;4744;52.576;13.568;2022-09-16T05:59:31;11.40;1.00
9410;DHT22;4744;52.576;13.568;2022-09-16T06:01:58;11.40;1.00
9410;DHT22;4744;52.576;13.568;2022-09-16T06:04:24;11.40;1.00
9410;DHT22;4744;52.576;13.568;2022-09-16T06:06:53;11.40;1.00
9410;DHT22;4744;52.576;13.568;2022-09-16T06:09:22;11.40;1.00
9410;DHT22;4744;52.576;13.568;2022-09-16T06:11:50;11.50;1.00
9410;DHT22;4744;52.576;13.568;2022-09-16T06:14:18;11.60;1.00
9410;DHT22;4744;52.576;13.568;2022-09-16T06:16:47;11.70;1.00
9410;DHT22;4744;52.576;13.568;2022-09-16T06:19:15;11.70;1.00
9410;DHT22;4744;52.576;13.568;2022-09-16T06:21:43;11.80;1.00
9410;DHT22;4744;52.576;13.568;2022-09-16T06:24:13;11.80;1.00
9410;DHT22;4744;52.576;13.568;2022-09-16T06:26:43;11.80;1.00
9410;DHT22;4744;52.576;13.568;2022-09-16T06:29:11;11.80;1.00
9410;DHT22;4744;52.576;13.568;2022-09-16T06:31:38;11.80;1.00
9410;DHT22;4744;52.576;13.568;2022-09-16T06:34:06;11.90;1.00
9410;DHT22;4744;52.576;13.568;2022-09-16T06:36:35;11.90;1.00
9410;DHT22;4744;52.576;13.568;2022-09-16T06:39:02;11.90;1.00
9410;DHT22;4744;52.576;13.568;2022-09-16T06:41:32;12.00;1.00
9410;DHT22;4744;52.576;13.568;2022-09-16T06:43:59;12.00;1.00
9410;DHT22;4744;52.576;13.568;2022-09-16T06:46:27;12.10;1.00
9410;DHT22;4744;52.576;13.568;2022-09-16T06:48:56;12.00;1.00
9410;DHT22;4744;52.576;13.568;2022-09-16T06:51:24;12.10;1.00
9410;DHT22;4744;52.576;13.568;2022-09-16T06:53:52;12.10;1.00
9410;DHT22;4744;52.576;13.568;2022-09-16T06:56:21;12.20;1.00
9410;DHT22;4744;52.576;13.568;2022-09-16T06:58:50;12.20;1.00
9410;DHT22;4744;52.576;13.568;2022-09-16T07:01:18;12.20;1.00
9410;DHT22;4744;52.576;13.568;2022-09-16T07:03:47;12.30;1.00
9410;DHT22;4744;52.576;13.568;2022-09-16T07:06:16;12.40;1.00
9410;DHT22;4744;52.576;13.568;2022-09-16T07:08:43;12.50;1.00
9410;DHT22;4744;52.576;13.568;2022-09-16T07:11:12;12.50;1.00
9410;DHT22;4744;52.576;13.568;2022-09-16T07:13:39;12.60;1.00
9410;DHT22;4744;52.576;13.568;2022-09-16T07:16:09;12.70;1.00
9410;DHT22;4744;52.576;13.568;2022-09-16T07:18:36;12.70;1.00
9410;DHT22;4744;52.576;13.568;2022-09-16T07:21:05;12.70;1.00
9410;DHT22;4744;52.576;13.568;2022-09-16T07:23:33;12.70;1.00
9410;DHT22;4744;52.576;13.568;2022-09-16T07:26:02;12.80;1.00
9410;DHT22;4744;52.576;13.568;2022-09-16T07:28:29;12.90;1.00
9410;DHT22;4744;52.576;13.568;2022-09-16T07:30:59;13.00;1.00
9410;DHT22;4744;52.576;13.568;2022-09-16T07:33:28;13.20;1.00
9410;DHT22;4744;52.576;13.568;2022-09-16T07:35:57;13.20;1.00
9410;DHT22;4744;52.576;13.568;2022-09-16T07:38:24;13.30;1.00
9410;DHT22;4744;52.576;13.568;2022-09-16T07:40:51;13.30;1.00
9410;DHT22;4744;52.576;13.568;2022-09-16T07:43:18;13.30;1.00
9410;DHT22;4744;52.576;13.568;2022-09-16T07:45:45;13.60;1.00
9410;DHT22;4744;52.576;13.568;2022-09-16T07:48:12;13.90;1.00
9410;DHT22;4744;52.576;13.568;2022-09-16T07:50:40;14.60;1.00
9410;DHT22;4744;52.576;13.568;2022-09-16T07:53:07;15.30;1.00
9410;DHT22;4744;52.576;13.568;2022-09-16T07:55:34;15.50;1.00
9410;DHT22;4744;52.576;13.568;2022-09-16T07:58:01;15.80;1.00
9410;DHT22;4744;52.576;13.568;2022-09-16T08:00:28;15.90;1.00
9410;DHT22;4744;52.576;13.568;2022-09-16T08:02:56;15.60;1.00
9410;DHT22;4744;52.576;13.568;2022-09-16T08:05:23;15.30;1.00
9410;DHT22;4744;52.576;13.568;2022-09-16T08:07:51;15.00;1.00
9410;DHT22;4744;52.576;13.568;2022-09-16T08:10:18;14.70;1.00
9410;DHT22;4744;52.576;13.568;2022-09-16T08:12:46;14.50;1.00
9410;DHT22;4744;52.576;13.568;2022-09-16T08:15:13;14.30;1.00
9410;DHT22;4744;52.576;13.568;2022-09-16T08:17:40;14.30;1.00
9410;DHT22;4744;52.576;13.568;2022-09-16T08:20:07;14.30;1.00
9410;DHT22;4744;52.576;13.568;2022-09-16T08:22:34;14.30;1.00
9410;DHT22;4744;52.576;13.568;2022-09-16T08:25:02;14.40;1.00
9410;DHT22;4744;52.576;13.568;2022-09-16T08:27:29;14.40;1.00
9410;DHT22;4744;52.576;13.568;2022-09-16T08:29:56;14.40;1.00
9410;DHT22;4744;52.576;13.568;2022-09-16T08:32:23;14.50;1.00
9410;DHT22;4744;52.576;13.568;2022-09-16T08:34:49;14.40;1.00
9410;DHT22;4744;52.576;13.568;2022-09-16T08:37:17;14.40;1.00
9410;DHT22;4744;52.576;13.568;2022-09-16T08:39:46;14.40;1.00
9410;DHT22;4744;52.576;13.568;2022-09-16T08:42:40;14.40;1.00
9410;DHT22;4744;52.576;13.568;2022-09-16T08:45:19;14.30;1.00
9410;DHT22;4744;52.576;13.568;2022-09-16T08:48:00;14.40;1.00
9410;DHT22;4744;52.576;13.568;2022-09-16T08:50:37;14.50;1.00
9410;DHT22;4744;52.576;13.568;2022-09-16T08:53:10;14.50;1.00
9410;DHT22;4744;52.576;13.568;2022-09-16T08:55:41;14.60;1.00
9410;DHT22;4744;52.576;13.568;2022-09-16T08:58:15;14.70;1.00
9410;DHT22;4744;52.576;13.568;2022-09-16T09:00:47;14.60;1.00
9410;DHT22;4744;52.576;13.568;2022-09-16T09:03:24;14.80;1.00
9410;DHT22;4744;52.576;13.568;2022-09-16T09:05:55;14.90;1.00
9410;DHT22;4744;52.576;13.568;2022-09-16T09:08:30;14.90;1.00
9410;DHT22;4744;52.576;13.568;2022-09-16T09:11:03;14.70;1.00
9410;DHT22;4744;52.576;13.568;2022-09-16T09:13:49;14.60;1.00
9410;DHT22;4744;52.576;13.568;2022-09-16T09:16:24;14.70;1.00
9410;DHT22;4744;52.576;13.568;2022-09-16T09:19:02;15.10;1.00
9410;DHT22;4744;52.576;13.568;2022-09-16T09:21:37;15.60;1.00
9410;DHT22;4744;52.576;13.568;2022-09-16T09:24:36;15.80;1.00
9410;DHT22;4744;52.576;13.568;2022-09-16T09:27:13;15.70;1.00
9410;DHT22;4744;52.576;13.568;2022-09-16T09:30:03;15.50;1.00
9410;DHT22;4744;52.576;13.568;2022-09-16T09:32:48;15.60;1.00
9410;DHT22;4744;52.576;13.568;2022-09-16T09:35:26;15.70;1.00
9410;DHT22;4744;52.576;13.568;2022-09-16T09:38:13;15.70;1.00
9410;DHT22;4744;52.576;13.568;2022-09-16T09:40:46;16.60;1.00
9410;DHT22;4744;52.576;13.568;2022-09-16T09:43:18;17.50;1.00
9410;DHT22;4744;52.576;13.568;2022-09-16T09:45:54;17.80;1.00
9410;DHT22;4744;52.576;13.568;2022-09-16T09:48:24;17.60;1.00
9410;DHT22;4744;52.576;13.568;2022-09-16T09:50:52;17.40;1.00
9410;DHT22;4744;52.576;13.568;2022-09-16T09:53:23;17.40;1.00
9410;DHT22;4744;52.576;13.568;2022-09-16T09:55:53;17.40;1.00
9410;DHT22;4744;52.576;13.568;2022-09-16T09:58:27;17.20;1.00
9410;DHT22;4744;52.576;13.568;2022-09-16T10:00:58;17.00;1.00
9410;DHT22;4744;52.576;13.568;2022-09-16T10:03:26;16.70;1.00
9410;DHT22;4744;52.576;13.568;2022-09-16T10:05:53;16.50;1.00
9410;DHT22;4744;52.576;13.568;2022-09-16T10:08:25;16.30;1.00
9410;DHT22;4744;52.576;13.568;2022-09-16T10:10:55;16.10;1.00
9410;DHT22;4744;52.576;13.568;2022-09-16T10:13:23;16.10;1.00
9410;DHT22;4744;52.576;13.568;2022-09-16T10:16:05;16.40;1.00
9410;DHT22;4744;52.576;13.568;2022-09-16T10:18:33;16.70;1.00
9410;DHT22;4744;52.576;13.568;2022-09-16T10:21:04;16.90;1.00
9410;DHT22;4744;52.576;13.568;2022-09-16T10:23:32;16.80;1.00
9410;DHT22;4744;52.576;13.568;2022-09-16T10:26:16;16.70;1.00
9410;DHT22;4744;52.576;13.568;2022-09-16T10:28:59;16.60;1.00
9410;DHT22;4744;52.576;13.568;2022-09-16T10:31:29;16.60;1.00
9410;DHT22;4744;52.576;13.568;2022-09-16T10:34:01;16.40;1.00
9410;DHT22;4744;52.576;13.568;2022-09-16T10:36:31;16.20;1.00
9410;DHT22;4744;52.576;13.568;2022-09-16T10:39:00;16.00;1.00
9410;DHT22;4744;52.576;13.568;2022-09-16T10:41:29;15.80;1.00
9410;DHT22;4744;52.576;13.568;2022-09-16T10:43:59;15.70;1.00
9410;DHT22;4744;52.576;13.568;2022-09-16T10:46:28;15.60;1.00
9410;DHT22;4744;52.576;13.568;2022-09-16T10:49:00;15.60;1.00
9410;DHT22;4744;52.576;13.568;2022-09-16T10:51:29;15.70;1.00
9410;DHT22;4744;52.576;13.568;2022-09-16T10:53:57;15.80;1.00
9410;DHT22;4744;52.576;13.568;2022-09-16T10:56:26;15.80;1.00
9410;DHT22;4744;52.576;13.568;2022-09-16T10:59:04;16.00;1.00
9410;DHT22;4744;52.576;13.568;2022-09-16T11:01:39;16.10;1.00
9410;DHT22;4744;52.576;13.568;2022-09-16T11:04:28;16.20;1.00
9410;DHT22;4744;52.576;13.568;2022-09-16T11:07:12;16.30;1.00
9410;DHT22;4744;52.576;13.568;2022-09-16T11:09:51;16.50;1.00
9410;DHT22;4744;52.576;13.568;2022-09-16T11:12:50;16.70;1.00
9410;DHT22;4744;52.576;13.568;2022-09-16T11:15:27;16.60;1.00
9410;DHT22;4744;52.576;13.568;2022-09-16T11:18:15;16.60;1.00
9410;DHT22;4744;52.576;13.568;2022-09-16T11:21:01;16.40;1.00
9410;DHT22;4744;52.576;13.568;2022-09-16T11:23:42;16.20;1.00
9410;DHT22;4744;52.576;13.568;2022-09-16T11:26:16;16.10;1.00
9410;DHT22;4744;52.576;13.568;2022-09-16T11:28:56;15.90;1.00
9410;DHT22;4744;52.576;13.568;2022-09-16T11:31:35;15.80;1.00
9410;DHT22;4744;52.576;13.568;2022-09-16T11:34:13;15.70;1.00
9410;DHT22;4744;52.576;13.568;2022-09-16T11:36:51;15.70;1.00
9410;DHT22;4744;52.576;13.568;2022-09-16T11:39:33;15.80;1.00
9410;DHT22;4744;52.576;13.568;2022-09-16T11:42:06;16.00;1.00
9410;DHT22;4744;52.576;13.568;2022-09-16T11:44:40;16.10;1.00
9410;DHT22;4744;52.576;13.568;2022-09-16T11:47:19;16.30;1.00
9410;DHT22;4744;52.576;13.568;2022-09-16T11:50:02;16.50;1.00
9410;DHT22;4744;52.576;13.568;2022-09-16T11:52:44;16.60;1.00
9410;DHT22;4744;52.576;13.568;2022-09-16T11:55:27;16.50;1.00
9410;DHT22;4744;52.576;13.568;2022-09-16T11:58:02;16.50;1.00
9410;DHT22;4744;52.576;13.568;2022-09-16T12:00:31;16.50;1.00
9410;DHT22;4744;52.576;13.568;2022-09-16T12:03:01;16.40;1.00
9410;DHT22;4744;52.576;13.568;2022-09-16T12:05:35;16.50;1.00
9410;DHT22;4744;52.576;13.568;2022-09-16T12:08:10;16.50;1.00
9410;DHT22;4744;52.576;13.568;2022-09-16T12:10:44;16.60;1.00
9410;DHT22;4744;52.576;13.568;2022-09-16T12:13:16;16.60;1.00
9410;DHT22;4744;52.576;13.568;2022-09-16T12:15:50;16.60;1.00
9410;DHT22;4744;52.576;13.568;2022-09-16T12:18:21;16.50;1.00
9410;DHT22;4744;52.576;13.568;2022-09-16T12:20:52;16.60;1.00
9410;DHT22;4744;52.576;13.568;2022-09-16T12:23:23;16.70;1.00
9410;DHT22;4744;52.576;13.568;2022-09-16T12:25:59;16.90;1.00
9410;DHT22;4744;52.576;13.568;2022-09-16T12:28:31;17.10;1.00
9410;DHT22;4744;52.576;13.568;2022-09-16T12:31:07;17.30;1.00
9410;DHT22;4744;52.576;13.568;2022-09-16T12:33:41;17.50;1.00
9410;DHT22;4744;52.576;13.568;2022-09-16T12:36:13;17.70;1.00
9410;DHT22;4744;52.576;13.568;2022-09-16T12:38:42;17.90;1.00
9410;DHT22;4744;52.576;13.568;2022-09-16T12:41:31;18.10;1.00
9410;DHT22;4744;52.576;13.568;2022-09-16T12:44:27;18.10;1.00
9410;DHT22;4744;52.576;13.568;2022-09-16T12:47:10;18.10;1.00
9410;DHT22;4744;52.576;13.568;2022-09-16T12:50:05;18.20;1.00
9410;DHT22;4744;52.576;13.568;2022-09-16T12:52:54;18.30;1.00
9410;DHT22;4744;52.576;13.568;2022-09-16T12:55:41;18.40;1.00
9410;DHT22;4744;52.576;13.568;2022-09-16T12:58:31;18.50;1.00
9410;DHT22;4744;52.576;13.568;2022-09-16T13:01:10;18.60;1.00
9410;DHT22;4744;52.576;13.568;2022-09-16T13:03:42;18.60;1.00
9410;DHT22;4744;52.576;13.568;2022-09-16T13:06:20;18.60;1.00
9410;DHT22;4744;52.576;13.568;2022-09-16T13:08:47;18.60;1.00
9410;DHT22;4744;52.576;13.568;2022-09-16T13:11:21;18.70;1.00
9410;DHT22;4744;52.576;13.568;2022-09-16T13:13:51;18.80;1.00
9410;DHT22;4744;52.576;13.568;2022-09-16T13:16:33;19.00;1.00
9410;DHT22;4744;52.576;13.568;2022-09-16T13:19:20;19.00;1.00
9410;DHT22;4744;52.576;13.568;2022-09-16T13:21:54;19.10;1.00
9410;DHT22;4744;52.576;13.568;2022-09-16T13:24:27;19.20;1.00
9410;DHT22;4744;52.576;13.568;2022-09-16T13:26:57;19.20;1.00
9410;DHT22;4744;52.576;13.568;2022-09-16T13:29:37;19.10;1.00
9410;DHT22;4744;52.576;13.568;2022-09-16T13:32:22;19.20;1.00
9410;DHT22;4744;52.576;13.568;2022-09-16T13:34:59;19.00;1.00
9410;DHT22;4744;52.576;13.568;2022-09-16T13:37:27;18.90;1.00
9410;DHT22;4744;52.576;13.568;2022-09-16T13:39:53;18.80;1.00
9410;DHT22;4744;52.576;13.568;2022-09-16T13:42:22;18.80;1.00
9410;DHT22;4744;52.576;13.568;2022-09-16T13:44:50;18.80;1.00
9410;DHT22;4744;52.576;13.568;2022-09-16T13:47:29;18.90;1.00
9410;DHT22;4744;52.576;13.568;2022-09-16T13:50:01;18.80;1.00
9410;DHT22;4744;52.576;13.568;2022-09-16T13:52:31;18.60;1.00
9410;DHT22;4744;52.576;13.568;2022-09-16T13:55:00;18.60;1.00
9410;DHT22;4744;52.576;13.568;2022-09-16T13:57:49;18.50;1.00
9410;DHT22;4744;52.576;13.568;2022-09-16T14:00:20;18.60;1.00
9410;DHT22;4744;52.576;13.568;2022-09-16T14:05:48;18.60;1.00
9410;DHT22;4744;52.576;13.568;2022-09-16T14:08:22;18.60;1.00
9410;DHT22;4744;52.576;13.568;2022-09-16T14:11:08;18.60;1.00
9410;DHT22;4744;52.576;13.568;2022-09-16T14:13:41;18.60;1.00
9410;DHT22;4744;52.576;13.568;2022-09-16T14:16:14;18.60;1.00
9410;DHT22;4744;52.576;13.568;2022-09-16T14:18:50;18.60;1.00
9410;DHT22;4744;52.576;13.568;2022-09-16T14:21:20;18.50;1.00
9410;DHT22;4744;52.576;13.568;2022-09-16T14:23:47;18.50;1.00
9410;DHT22;4744;52.576;13.568;2022-09-16T14:26:15;18.50;1.00
9410;DHT22;4744;52.576;13.568;2022-09-16T14:28:44;18.30;1.00
9410;DHT22;4744;52.576;13.568;2022-09-16T14:31:14;18.10;1.00
9410;DHT22;4744;52.576;13.568;2022-09-16T14:33:45;17.90;1.00
9410;DHT22;4744;52.576;13.568;2022-09-16T14:36:16;17.70;1.00
9410;DHT22;4744;52.576;13.568;2022-09-16T14:38:46;17.50;1.00
9410;DHT22;4744;52.576;13.568;2022-09-16T14:41:21;17.50;1.00
9410;DHT22;4744;52.576;13.568;2022-09-16T14:43:50;17.40;1.00
9410;DHT22;4744;52.576;13.568;2022-09-16T14:46:18;17.30;1.00
9410;DHT22;4744;52.576;13.568;2022-09-16T14:48:45;17.30;1.00
9410;DHT22;4744;52.576;13.568;2022-09-16T14:51:19;17.20;1.00
9410;DHT22;4744;52.576;13.568;2022-09-16T14:53:55;17.20;1.00
9410;DHT22;4744;52.576;13.568;2022-09-16T14:56:22;17.30;1.00
9410;DHT22;4744;52.576;13.568;2022-09-16T14:58:52;17.30;1.00
9410;DHT22;4744;52.576;13.568;2022-09-16T15:01:22;17.20;1.00
9410;DHT22;4744;52.576;13.568;2022-09-16T15:03:52;17.20;1.00
9410;DHT22;4744;52.576;13.568;2022-09-16T15:06:22;17.00;1.00
9410;DHT22;4744;52.576;13.568;2022-09-16T15:08:53;17.00;1.00
9410;DHT22;4744;52.576;13.568;2022-09-16T15:11:24;17.00;1.00
9410;DHT22;4744;52.576;13.568;2022-09-16T15:13:53;16.90;1.00
9410;DHT22;4744;52.576;13.568;2022-09-16T15:16:22;16.90;1.00
9410;DHT22;4744;52.576;13.568;2022-09-16T15:18:56;16.90;1.00
9410;DHT22;4744;52.576;13.568;2022-09-16T15:21:26;16.90;1.00
9410;DHT22;4744;52.576;13.568;2022-09-16T15:23:55;16.90;1.00
9410;DHT22;4744;52.576;13.568;2022-09-16T15:26:24;16.90;1.00
9410;DHT22;4744;52.576;13.568;2022-09-16T15:28:55;16.90;1.00
9410;DHT22;4744;52.576;13.568;2022-09-16T15:31:30;16.90;1.00
9410;DHT22;4744;52.576;13.568;2022-09-16T15:33:58;16.80;1.00
9410;DHT22;4744;52.576;13.568;2022-09-16T15:36:40;16.80;1.00
9410;DHT22;4744;52.576;13.568;2022-09-16T15:39:22;16.80;1.00
9410;DHT22;4744;52.576;13.568;2022-09-16T15:41:50;16.80;1.00
9410;DHT22;4744;52.576;13.568;2022-09-16T15:44:24;16.70;1.00
9410;DHT22;4744;52.576;13.568;2022-09-16T15:46:53;16.70;1.00
9410;DHT22;4744;52.576;13.568;2022-09-16T15:49:20;16.60;1.00
9410;DHT22;4744;52.576;13.568;2022-09-16T15:51:49;16.60;1.00
9410;DHT22;4744;52.576;13.568;2022-09-16T15:54:22;16.60;1.00
9410;DHT22;4744;52.576;13.568;2022-09-16T15:56:56;16.60;1.00
9410;DHT22;4744;52.576;13.568;2022-09-16T15:59:30;16.70;1.00
9410;DHT22;4744;52.576;13.568;2022-09-16T16:02:00;16.70;1.00
9410;DHT22;4744;52.576;13.568;2022-09-16T16:04:30;16.70;1.00
9410;DHT22;4744;52.576;13.568;2022-09-16T16:06:59;16.70;1.00
9410;DHT22;4744;52.576;13.568;2022-09-16T16:09:39;16.70;1.00
9410;DHT22;4744;52.576;13.568;2022-09-16T16:12:09;16.60;1.00
9410;DHT22;4744;52.576;13.568;2022-09-16T16:14:39;16.60;1.00
9410;DHT22;4744;52.576;13.568;2022-09-16T16:17:08;16.60;1.00
9410;DHT22;4744;52.576;13.568;2022-09-16T16:19:35;16.50;1.00
9410;DHT22;4744;52.576;13.568;2022-09-16T16:22:04;16.40;1.00
9410;DHT22;4744;52.576;13.568;2022-09-16T16:24:31;16.30;1.00
9410;DHT22;4744;52.576;13.568;2022-09-16T16:26:58;16.20;1.00
9410;DHT22;4744;52.576;13.568;2022-09-16T16:29:25;16.20;1.00
9410;DHT22;4744;52.576;13.568;2022-09-16T16:32:02;16.10;1.00
9410;DHT22;4744;52.576;13.568;2022-09-16T16:34:31;16.00;1.00